sensor_id;sensor_type;location;lat;lon;timestamp;temperature;humidity
2300;DHT22;1158;48.750;9.078;2023-05-20T00:01:29;8.00;99.90
2300;DHT22;1158;48.750;9.078;2023-05-20T00:03:56;8.00;99.90
2300;DHT22;1158;48.750;9.078;2023-05-20T00:06:23;8.00;99.90
2300;DHT22;1158;48.750;9.078;2023-05-20T00:08:49;7.90;99.90
2300;DHT22;1158;48.750;9.078;2023-05-20T00:11:18;7.90;99.90
2300;DHT22;1158;48.750;9.078;2023-05-20T00:13:44;7.90;99.90
2300;DHT22;1158;48.750;9.078;2023-05-20T00:16:11;7.90;99.90
2300;DHT22;1158;48.750;9.078;2023-05-20T00:18:38;7.90;99.90
2300;DHT22;1158;48.750;9.078;2023-05-20T00:21:05;8.00;99.90
2300;DHT22;1158;48.750;9.078;2023-05-20T00:23:31;8.00;99.90
2300;DHT22;1158;48.750;9.078;2023-05-20T00:25:58;8.00;99.90
2300;DHT22;1158;48.750;9.078;2023-05-20T00:28:26;8.00;99.90
2300;DHT22;1158;48.750;9.078;2023-05-20T00:30:53;8.00;99.90
2300;DHT22;1158;48.750;9.078;2023-05-20T00:33:20;8.00;99.90
2300;DHT22;1158;48.750;9.078;2023-05-20T00:35:47;8.10;99.90
2300;DHT22;1158;48.750;9.078;2023-05-20T00:38:13;8.10;99.90
2300;DHT22;1158;48.750;9.078;2023-05-20T00:40:40;8.10;99.90
2300;DHT22;1158;48.750;9.078;2023-05-20T00:43:07;8.10;99.90
2300;DHT22;1158;48.750;9.078;2023-05-20T00:45:36;8.20;99.90
2300;DHT22;1158;48.750;9.078;2023-05-20T00:48:03;8.20;99.90
2300;DHT22;1158;48.750;9.078;2023-05-20T00:50:30;8.30;99.90
2300;DHT22;1158;48.750;9.078;2023-05-20T00:52:57;8.30;99.90
2300;DHT22;1158;48.750;9.078;2023-05-20T00:55:24;8.30;99.90
2300;DHT22;1158;48.750;9.078;2023-05-20T00:57:52;8.30;99.90
2300;DHT22;1158;48.750;9.078;2023-05-20T01:00:19;8.30;99.90
2300;DHT22;1158;48.750;9.078;2023-05-20T01:02:47;8.40;99.90
2300;DHT22;1158;48.750;9.078;2023-05-20T01:05:14;8.40;99.90
2300;DHT22;1158;48.750;9.078;2023-05-20T01:07:40;8.50;99.90
2300;DHT22;1158;48.750;9.078;2023-05-20T01:10:08;8.60;99.90
2300;DHT22;1158;48.750;9.078;2023-05-20T01:12:38;8.60;99.90
2300;DHT22;1158;48.750;9.078;2023-05-20T01:15:09;8.60;99.90
2300;DHT22;1158;48.750;9.078;2023-05-20T01:17:39;8.60;99.90
2300;DHT22;1158;48.750;9.078;2023-05-20T01:20:12;8.70;99.90
2300;DHT22;1158;48.750;9.078;2023-05-20T01:22:46;8.70;99.90
2300;DHT22;1158;48.750;9.078;2023-05-20T01:25:12;8.80;99.90
2300;DHT22;1158;48.750;9.078;2023-05-20T01:27:39;8.80;99.90
2300;DHT22;1158;48.750;9.078;2023-05-20T01:30:07;8.90;99.90
2300;DHT22;1158;48.750;9.078;2023-05-20T01:32:36;8.80;99.90
2300;DHT22;1158;48.750;9.078;2023-05-20T01:35:04;8.80;99.90
2300;DHT22;1158;48.750;9.078;2023-05-20T01:37:31;8.80;99.90
2300;DHT22;1158;48.750;9.078;2023-05-20T01:40:03;8.80;99.90
2300;DHT22;1158;48.750;9.078;2023-05-20T01:42:30;8.70;99.90
2300;DHT22;1158;48.750;9.078;2023-05-20T01:44:58;8.70;99.90
2300;DHT22;1158;48.750;9.078;2023-05-20T01:47:25;8.80;99.90
2300;DHT22;1158;48.750;9.078;2023-05-20T01:49:51;8.80;99.90
2300;DHT22;1158;48.750;9.078;2023-05-20T01:52:18;8.80;99.90
2300;DHT22;1158;48.750;9.078;2023-05-20T01:54:45;8.80;99.90
2300;DHT22;1158;48.750;9.078;2023-05-20T01:57:17;8.80;99.90
2300;DHT22;1158;48.750;9.078;2023-05-20T01:59:43;8.80;99.90
2300;DHT22;1158;48.750;9.078;2023-05-20T02:02:10;8.80;99.90
2300;DHT22;1158;48.750;9.078;2023-05-20T02:04:37;8.90;99.90
2300;DHT22;1158;48.750;9.078;2023-05-20T02:07:03;8.90;99.90
2300;DHT22;1158;48.750;9.078;2023-05-20T02:09:30;8.90;99.90
2300;DHT22;1158;48.750;9.078;2023-05-20T02:11:58;8.90;99.90
2300;DHT22;1158;48.750;9.078;2023-05-20T02:14:26;8.90;99.90
2300;DHT22;1158;48.750;9.078;2023-05-20T02:16:53;8.90;99.90
2300;DHT22;1158;48.750;9.078;2023-05-20T02:19:19;8.90;99.90
2300;DHT22;1158;48.750;9.078;2023-05-20T02:21:48;8.90;99.90
2300;DHT22;1158;48.750;9.078;2023-05-20T02:24:15;8.90;99.90
2300;DHT22;1158;48.750;9.078;2023-05-20T02:26:42;8.90;99.90
2300;DHT22;1158;48.750;9.078;2023-05-20T02:29:10;8.80;99.90
2300;DHT22;1158;48.750;9.078;2023-05-20T02:31:38;8.80;99.90
2300;DHT22;1158;48.750;9.078;2023-05-20T02:34:05;8.70;99.90
2300;DHT22;1158;48.750;9.078;2023-05-20T02:36:31;8.70;99.90
2300;DHT22;1158;48.750;9.078;2023-05-20T02:38:58;8.60;99.90
2300;DHT22;1158;48.750;9.078;2023-05-20T02:41:25;8.60;99.90
2300;DHT22;1158;48.750;9.078;2023-05-20T02:43:52;8.50;99.90
2300;DHT22;1158;48.750;9.078;2023-05-20T02:46:20;8.40;99.90
2300;DHT22;1158;48.750;9.078;2023-05-20T02:48:48;8.40;99.90
2300;DHT22;1158;48.750;9.078;2023-05-20T02:51:15;8.40;99.90
2300;DHT22;1158;48.750;9.078;2023-05-20T02:53:42;8.30;99.90
2300;DHT22;1158;48.750;9.078;2023-05-20T02:56:08;8.30;99.90
2300;DHT22;1158;48.750;9.078;2023-05-20T02:58:35;8.30;99.90
2300;DHT22;1158;48.750;9.078;2023-05-20T03:01:02;8.20;99.90
2300;DHT22;1158;48.750;9.078;2023-05-20T03:03:28;8.20;99.90
2300;DHT22;1158;48.750;9.078;2023-05-20T03:05:57;8.20;99.90
2300;DHT22;1158;48.750;9.078;2023-05-20T03:08:24;8.30;99.90
2300;DHT22;1158;48.750;9.078;2023-05-20T03:10:50;8.30;99.90
2300;DHT22;1158;48.750;9.078;2023-05-20T03:13:17;8.30;99.90
2300;DHT22;1158;48.750;9.078;2023-05-20T03:15:44;8.30;99.90
2300;DHT22;1158;48.750;9.078;2023-05-20T03:18:11;8.30;99.90
2300;DHT22;1158;48.750;9.078;2023-05-20T03:20:38;8.30;99.90
2300;DHT22;1158;48.750;9.078;2023-05-20T03:23:07;8.30;99.90
2300;DHT22;1158;48.750;9.078;2023-05-20T03:25:35;8.30;99.90
2300;DHT22;1158;48.750;9.078;2023-05-20T03:28:02;8.30;99.90
2300;DHT22;1158;48.750;9.078;2023-05-20T03:30:29;8.30;99.90
2300;DHT22;1158;48.750;9.078;2023-05-20T03:32:55;8.20;99.90
2300;DHT22;1158;48.750;9.078;2023-05-20T03:35:23;8.20;99.90
2300;DHT22;1158;48.750;9.078;2023-05-20T03:37:49;8.20;99.90
2300;DHT22;1158;48.750;9.078;2023-05-20T03:40:19;8.10;99.90
2300;DHT22;1158;48.750;9.078;2023-05-20T03:42:46;8.10;99.90
2300;DHT22;1158;48.750;9.078;2023-05-20T03:45:12;8.20;99.90
2300;DHT22;1158;48.750;9.078;2023-05-20T03:47:39;8.20;99.90
2300;DHT22;1158;48.750;9.078;2023-05-20T03:50:06;8.10;99.90
2300;DHT22;1158;48.750;9.078;2023-05-20T03:52:33;8.10;99.90
2300;DHT22;1158;48.750;9.078;2023-05-20T03:55:00;8.30;99.90
2300;DHT22;1158;48.750;9.078;2023-05-20T03:57:28;8.30;99.90
2300;DHT22;1158;48.750;9.078;2023-05-20T03:59:56;8.40;99.90
2300;DHT22;1158;48.750;9.078;2023-05-20T04:02:23;8.40;99.90
2300;DHT22;1158;48.750;9.078;2023-05-20T04:04:49;8.50;99.90
2300;DHT22;1158;48.750;9.078;2023-05-20T04:07:17;8.50;99.90
2300;DHT22;1158;48.750;9.078;2023-05-20T04:09:44;8.50;99.90
2300;DHT22;1158;48.750;9.078;2023-05-20T04:12:11;8.50;99.90
2300;DHT22;1158;48.750;9.078;2023-05-20T04:14:39;8.60;99.90
2300;DHT22;1158;48.750;9.078;2023-05-20T04:17:07;8.60;99.90
2300;DHT22;1158;48.750;9.078;2023-05-20T04:19:33;8.60;99.90
2300;DHT22;1158;48.750;9.078;2023-05-20T04:22:00;8.60;99.90
2300;DHT22;1158;48.750;9.078;2023-05-20T04:24:27;8.70;99.90
2300;DHT22;1158;48.750;9.078;2023-05-20T04:26:54;8.70;99.90
2300;DHT22;1158;48.750;9.078;2023-05-20T04:29:20;8.80;99.90
2300;DHT22;1158;48.750;9.078;2023-05-20T04:31:48;8.90;99.90
2300;DHT22;1158;48.750;9.078;2023-05-20T04:34:15;9.00;99.90
2300;DHT22;1158;48.750;9.078;2023-05-20T04:36:44;9.20;99.90
2300;DHT22;1158;48.750;9.078;2023-05-20T04:39:11;9.30;99.90
2300;DHT22;1158;48.750;9.078;2023-05-20T04:41:38;9.50;99.90
2300;DHT22;1158;48.750;9.078;2023-05-20T04:44:04;9.70;99.90
2300;DHT22;1158;48.750;9.078;2023-05-20T04:46:31;9.90;99.90
2300;DHT22;1158;48.750;9.078;2023-05-20T04:48:59;10.00;99.90
2300;DHT22;1158;48.750;9.078;2023-05-20T04:51:26;10.20;99.90
2300;DHT22;1158;48.750;9.078;2023-05-20T04:53:53;10.40;99.90
2300;DHT22;1158;48.750;9.078;2023-05-20T04:56:20;10.60;99.90
2300;DHT22;1158;48.750;9.078;2023-05-20T04:58:47;10.70;99.90
2300;DHT22;1158;48.750;9.078;2023-05-20T05:01:13;10.90;99.90
2300;DHT22;1158;48.750;9.078;2023-05-20T05:03:40;11.00;99.90
2300;DHT22;1158;48.750;9.078;2023-05-20T05:06:08;11.10;99.90
2300;DHT22;1158;48.750;9.078;2023-05-20T05:08:35;11.20;99.90
2300;DHT22;1158;48.750;9.078;2023-05-20T05:11:04;11.30;99.90
2300;DHT22;1158;48.750;9.078;2023-05-20T05:13:31;11.40;99.90
2300;DHT22;1158;48.750;9.078;2023-05-20T05:15:58;11.50;99.90
2300;DHT22;1158;48.750;9.078;2023-05-20T05:18:25;11.50;99.90
2300;DHT22;1158;48.750;9.078;2023-05-20T05:20:58;11.60;99.90
2300;DHT22;1158;48.750;9.078;2023-05-20T05:23:26;11.70;99.90
2300;DHT22;1158;48.750;9.078;2023-05-20T05:25:53;11.80;99.90
2300;DHT22;1158;48.750;9.078;2023-05-20T05:28:19;11.80;99.90
2300;DHT22;1158;48.750;9.078;2023-05-20T05:30:46;11.90;99.90
2300;DHT22;1158;48.750;9.078;2023-05-20T05:33:13;12.10;99.90
2300;DHT22;1158;48.750;9.078;2023-05-20T05:35:40;12.20;99.90
2300;DHT22;1158;48.750;9.078;2023-05-20T05:38:06;12.30;99.90
2300;DHT22;1158;48.750;9.078;2023-05-20T05:40:34;12.30;99.90
2300;DHT22;1158;48.750;9.078;2023-05-20T05:43:01;12.50;99.90
2300;DHT22;1158;48.750;9.078;2023-05-20T05:45:28;12.70;99.90
2300;DHT22;1158;48.750;9.078;2023-05-20T05:47:55;13.00;99.90
2300;DHT22;1158;48.750;9.078;2023-05-20T05:50:21;13.20;99.90
2300;DHT22;1158;48.750;9.078;2023-05-20T05:52:48;13.50;99.90
2300;DHT22;1158;48.750;9.078;2023-05-20T05:55:15;13.30;99.90
2300;DHT22;1158;48.750;9.078;2023-05-20T05:57:44;13.30;99.90
2300;DHT22;1158;48.750;9.078;2023-05-20T06:00:11;13.30;99.90
2300;DHT22;1158;48.750;9.078;2023-05-20T06:02:38;13.60;99.90
2300;DHT22;1158;48.750;9.078;2023-05-20T06:05:06;13.80;99.90
2300;DHT22;1158;48.750;9.078;2023-05-20T06:07:33;14.10;99.90
2300;DHT22;1158;48.750;9.078;2023-05-20T06:09:59;14.10;99.90
2300;DHT22;1158;48.750;9.078;2023-05-20T06:12:26;14.10;99.90
2300;DHT22;1158;48.750;9.078;2023-05-20T06:14:54;13.90;99.90
2300;DHT22;1158;48.750;9.078;2023-05-20T06:17:21;13.90;99.90
2300;DHT22;1158;48.750;9.078;2023-05-20T06:19:47;13.90;99.90
2300;DHT22;1158;48.750;9.078;2023-05-20T06:22:14;13.70;99.90
2300;DHT22;1158;48.750;9.078;2023-05-20T06:24:41;13.80;99.90
2300;DHT22;1158;48.750;9.078;2023-05-20T06:27:08;14.00;99.90
2300;DHT22;1158;48.750;9.078;2023-05-20T06:29:34;14.20;99.90
2300;DHT22;1158;48.750;9.078;2023-05-20T06:32:03;14.30;99.90
2300;DHT22;1158;48.750;9.078;2023-05-20T06:34:30;14.40;99.90
2300;DHT22;1158;48.750;9.078;2023-05-20T06:36:57;14.70;99.90
2300;DHT22;1158;48.750;9.078;2023-05-20T06:39:24;14.80;99.90
2300;DHT22;1158;48.750;9.078;2023-05-20T06:41:50;14.70;99.90
2300;DHT22;1158;48.750;9.078;2023-05-20T06:44:18;14.80;99.90
2300;DHT22;1158;48.750;9.078;2023-05-20T06:46:45;14.90;99.90
2300;DHT22;1158;48.750;9.078;2023-05-20T06:49:13;14.70;99.90
2300;DHT22;1158;48.750;9.078;2023-05-20T06:51:39;14.80;99.90
2300;DHT22;1158;48.750;9.078;2023-05-20T06:54:06;15.00;99.90
2300;DHT22;1158;48.750;9.078;2023-05-20T06:56:33;15.30;99.90
2300;DHT22;1158;48.750;9.078;2023-05-20T06:58:59;15.40;99.90
2300;DHT22;1158;48.750;9.078;2023-05-20T07:01:26;15.40;99.90
2300;DHT22;1158;48.750;9.078;2023-05-20T07:03:53;15.50;99.90
2300;DHT22;1158;48.750;9.078;2023-05-20T07:06:21;15.70;99.90
2300;DHT22;1158;48.750;9.078;2023-05-20T07:08:48;15.90;99.90
2300;DHT22;1158;48.750;9.078;2023-05-20T07:11:14;15.80;99.90
2300;DHT22;1158;48.750;9.078;2023-05-20T07:13:41;15.70;99.90
2300;DHT22;1158;48.750;9.078;2023-05-20T07:16:08;16.10;99.90
2300;DHT22;1158;48.750;9.078;2023-05-20T07:18:34;16.10;99.90
2300;DHT22;1158;48.750;9.078;2023-05-20T07:21:01;16.10;99.90
2300;DHT22;1158;48.750;9.078;2023-05-20T07:23:30;16.80;99.90
2300;DHT22;1158;48.750;9.078;2023-05-20T07:25:56;17.50;99.90
2300;DHT22;1158;48.750;9.078;2023-05-20T07:28:23;18.70;99.90
2300;DHT22;1158;48.750;9.078;2023-05-20T07:30:50;19.10;99.90
2300;DHT22;1158;48.750;9.078;2023-05-20T07:33:16;19.00;99.90
2300;DHT22;1158;48.750;9.078;2023-05-20T07:35:43;18.40;99.90
2300;DHT22;1158;48.750;9.078;2023-05-20T07:38:10;18.50;99.90
2300;DHT22;1158;48.750;9.078;2023-05-20T07:40:38;19.50;99.90
2300;DHT22;1158;48.750;9.078;2023-05-20T07:43:06;19.10;99.90
2300;DHT22;1158;48.750;9.078;2023-05-20T07:45:33;19.60;99.90
2300;DHT22;1158;48.750;9.078;2023-05-20T07:48:01;20.70;99.90
2300;DHT22;1158;48.750;9.078;2023-05-20T07:50:27;19.80;99.90
2300;DHT22;1158;48.750;9.078;2023-05-20T07:52:54;19.00;99.90
2300;DHT22;1158;48.750;9.078;2023-05-20T07:55:21;19.50;99.90
2300;DHT22;1158;48.750;9.078;2023-05-20T07:57:49;20.50;99.90
2300;DHT22;1158;48.750;9.078;2023-05-20T08:00:16;20.30;99.90
2300;DHT22;1158;48.750;9.078;2023-05-20T08:02:43;19.50;99.90
2300;DHT22;1158;48.750;9.078;2023-05-20T08:05:10;19.20;99.90
2300;DHT22;1158;48.750;9.078;2023-05-20T08:07:36;19.80;99.90
2300;DHT22;1158;48.750;9.078;2023-05-20T08:10:04;19.70;99.90
2300;DHT22;1158;48.750;9.078;2023-05-20T08:12:30;20.00;99.90
2300;DHT22;1158;48.750;9.078;2023-05-20T08:14:58;19.30;99.90
2300;DHT22;1158;48.750;9.078;2023-05-20T08:17:25;19.20;99.90
2300;DHT22;1158;48.750;9.078;2023-05-20T08:19:52;18.80;99.90
2300;DHT22;1158;48.750;9.078;2023-05-20T08:22:18;18.50;99.90
2300;DHT22;1158;48.750;9.078;2023-05-20T08:24:45;18.60;99.90
2300;DHT22;1158;48.750;9.078;2023-05-20T08:27:12;18.70;99.90
2300;DHT22;1158;48.750;9.078;2023-05-20T08:29:38;18.70;99.90
2300;DHT22;1158;48.750;9.078;2023-05-20T08:32:07;18.40;99.90
2300;DHT22;1158;48.750;9.078;2023-05-20T08:34:33;18.20;99.90
2300;DHT22;1158;48.750;9.078;2023-05-20T08:37:01;18.20;99.90
2300;DHT22;1158;48.750;9.078;2023-05-20T08:39:28;17.80;99.90
2300;DHT22;1158;48.750;9.078;2023-05-20T08:41:55;18.10;99.90
2300;DHT22;1158;48.750;9.078;2023-05-20T08:44:21;18.50;99.90
2300;DHT22;1158;48.750;9.078;2023-05-20T08:46:50;18.50;99.90
2300;DHT22;1158;48.750;9.078;2023-05-20T08:49:18;18.50;99.90
2300;DHT22;1158;48.750;9.078;2023-05-20T08:51:45;18.30;99.90
2300;DHT22;1158;48.750;9.078;2023-05-20T08:54:13;18.20;99.90
2300;DHT22;1158;48.750;9.078;2023-05-20T08:56:42;18.40;99.90
2300;DHT22;1158;48.750;9.078;2023-05-20T08:59:09;18.20;99.90
2300;DHT22;1158;48.750;9.078;2023-05-20T09:01:41;18.70;99.90
2300;DHT22;1158;48.750;9.078;2023-05-20T09:04:08;19.20;99.90
2300;DHT22;1158;48.750;9.078;2023-05-20T09:06:43;20.10;99.90
2300;DHT22;1158;48.750;9.078;2023-05-20T09:09:10;21.10;99.90
2300;DHT22;1158;48.750;9.078;2023-05-20T09:11:38;22.00;99.90
2300;DHT22;1158;48.750;9.078;2023-05-20T09:14:05;23.10;99.90
2300;DHT22;1158;48.750;9.078;2023-05-20T09:16:32;22.60;97.90
2300;DHT22;1158;48.750;9.078;2023-05-20T09:18:58;21.90;99.20
2300;DHT22;1158;48.750;9.078;2023-05-20T09:21:25;21.60;99.90
2300;DHT22;1158;48.750;9.078;2023-05-20T09:23:54;21.20;99.70
2300;DHT22;1158;48.750;9.078;2023-05-20T09:26:22;20.30;99.90
2300;DHT22;1158;48.750;9.078;2023-05-20T09:28:49;19.90;99.90
2300;DHT22;1158;48.750;9.078;2023-05-20T09:31:15;19.90;99.90
2300;DHT22;1158;48.750;9.078;2023-05-20T09:33:42;19.80;99.90
2300;DHT22;1158;48.750;9.078;2023-05-20T09:36:10;20.00;99.90
2300;DHT22;1158;48.750;9.078;2023-05-20T09:38:38;20.30;99.90
2300;DHT22;1158;48.750;9.078;2023-05-20T09:41:08;19.40;99.90
2300;DHT22;1158;48.750;9.078;2023-05-20T09:43:36;19.20;99.90
2300;DHT22;1158;48.750;9.078;2023-05-20T09:46:03;19.60;99.90
2300;DHT22;1158;48.750;9.078;2023-05-20T09:48:31;19.90;99.90
2300;DHT22;1158;48.750;9.078;2023-05-20T09:50:58;20.80;99.90
2300;DHT22;1158;48.750;9.078;2023-05-20T09:53:27;21.40;99.90
2300;DHT22;1158;48.750;9.078;2023-05-20T09:55:54;21.90;99.70
2300;DHT22;1158;48.750;9.078;2023-05-20T09:58:22;21.90;99.50
2300;DHT22;1158;48.750;9.078;2023-05-20T10:00:49;22.30;99.40
2300;DHT22;1158;48.750;9.078;2023-05-20T10:03:17;23.10;98.70
2300;DHT22;1158;48.750;9.078;2023-05-20T10:06:00;22.30;99.10
2300;DHT22;1158;48.750;9.078;2023-05-20T10:08:44;23.30;97.50
2300;DHT22;1158;48.750;9.078;2023-05-20T10:11:18;23.40;97.00
2300;DHT22;1158;48.750;9.078;2023-05-20T10:14:01;22.70;97.40
2300;DHT22;1158;48.750;9.078;2023-05-20T10:16:37;23.30;97.50
2300;DHT22;1158;48.750;9.078;2023-05-20T10:19:11;23.50;96.30
2300;DHT22;1158;48.750;9.078;2023-05-20T10:21:40;24.30;96.50
2300;DHT22;1158;48.750;9.078;2023-05-20T10:24:08;25.00;96.10
2300;DHT22;1158;48.750;9.078;2023-05-20T10:26:35;25.40;95.40
2300;DHT22;1158;48.750;9.078;2023-05-20T10:29:15;25.40;94.50
2300;DHT22;1158;48.750;9.078;2023-05-20T10:31:47;25.80;93.60
2300;DHT22;1158;48.750;9.078;2023-05-20T10:34:14;25.00;94.80
2300;DHT22;1158;48.750;9.078;2023-05-20T10:36:44;25.30;94.70
2300;DHT22;1158;48.750;9.078;2023-05-20T10:39:14;25.50;94.50
2300;DHT22;1158;48.750;9.078;2023-05-20T10:41:42;25.60;93.40
2300;DHT22;1158;48.750;9.078;2023-05-20T10:44:08;25.70;93.30
2300;DHT22;1158;48.750;9.078;2023-05-20T10:46:37;25.50;92.60
2300;DHT22;1158;48.750;9.078;2023-05-20T10:49:04;24.90;94.20
2300;DHT22;1158;48.750;9.078;2023-05-20T10:51:35;24.50;93.90
2300;DHT22;1158;48.750;9.078;2023-05-20T10:54:02;24.00;94.70
2300;DHT22;1158;48.750;9.078;2023-05-20T10:56:29;23.50;95.40
2300;DHT22;1158;48.750;9.078;2023-05-20T10:58:55;23.10;95.00
2300;DHT22;1158;48.750;9.078;2023-05-20T11:01:24;22.60;95.70
2300;DHT22;1158;48.750;9.078;2023-05-20T11:03:53;22.20;96.80
2300;DHT22;1158;48.750;9.078;2023-05-20T11:06:25;22.70;97.20
2300;DHT22;1158;48.750;9.078;2023-05-20T11:08:53;24.10;96.80
2300;DHT22;1158;48.750;9.078;2023-05-20T11:11:21;25.10;94.20
2300;DHT22;1158;48.750;9.078;2023-05-20T11:13:49;25.60;93.60
2300;DHT22;1158;48.750;9.078;2023-05-20T11:16:16;26.20;93.60
2300;DHT22;1158;48.750;9.078;2023-05-20T11:18:43;26.50;93.10
2300;DHT22;1158;48.750;9.078;2023-05-20T11:21:11;26.70;92.10
2300;DHT22;1158;48.750;9.078;2023-05-20T11:23:38;26.90;92.20
2300;DHT22;1158;48.750;9.078;2023-05-20T11:26:05;26.60;91.80
2300;DHT22;1158;48.750;9.078;2023-05-20T11:28:34;26.80;91.60
2300;DHT22;1158;48.750;9.078;2023-05-20T11:31:01;26.30;91.90
2300;DHT22;1158;48.750;9.078;2023-05-20T11:33:29;25.20;91.60
2300;DHT22;1158;48.750;9.078;2023-05-20T11:35:56;24.00;93.00
2300;DHT22;1158;48.750;9.078;2023-05-20T11:38:24;23.90;92.90
2300;DHT22;1158;48.750;9.078;2023-05-20T11:40:52;23.50;93.50
2300;DHT22;1158;48.750;9.078;2023-05-20T11:43:19;23.20;94.40
2300;DHT22;1158;48.750;9.078;2023-05-20T11:45:51;23.70;94.10
2300;DHT22;1158;48.750;9.078;2023-05-20T11:48:18;24.10;94.00
2300;DHT22;1158;48.750;9.078;2023-05-20T11:50:46;24.10;93.40
2300;DHT22;1158;48.750;9.078;2023-05-20T11:53:14;23.90;94.20
2300;DHT22;1158;48.750;9.078;2023-05-20T11:55:48;24.80;93.40
2300;DHT22;1158;48.750;9.078;2023-05-20T11:58:16;25.00;92.50
2300;DHT22;1158;48.750;9.078;2023-05-20T12:00:43;24.30;93.10
2300;DHT22;1158;48.750;9.078;2023-05-20T12:03:10;24.10;93.20
2300;DHT22;1158;48.750;9.078;2023-05-20T12:05:37;24.00;93.50
2300;DHT22;1158;48.750;9.078;2023-05-20T12:08:05;23.90;93.80
2300;DHT22;1158;48.750;9.078;2023-05-20T12:10:32;24.30;93.50
2300;DHT22;1158;48.750;9.078;2023-05-20T12:13:00;24.60;92.50
2300;DHT22;1158;48.750;9.078;2023-05-20T12:15:27;26.10;92.40
2300;DHT22;1158;48.750;9.078;2023-05-20T12:17:54;27.20;91.10
2300;DHT22;1158;48.750;9.078;2023-05-20T12:20:23;27.80;90.30
2300;DHT22;1158;48.750;9.078;2023-05-20T12:22:50;28.50;88.20
2300;DHT22;1158;48.750;9.078;2023-05-20T12:25:19;28.40;86.80
2300;DHT22;1158;48.750;9.078;2023-05-20T12:27:47;28.60;87.30
2300;DHT22;1158;48.750;9.078;2023-05-20T12:30:16;27.90;87.60
2300;DHT22;1158;48.750;9.078;2023-05-20T12:32:44;28.20;87.20
2300;DHT22;1158;48.750;9.078;2023-05-20T12:35:11;27.80;87.30
2300;DHT22;1158;48.750;9.078;2023-05-20T12:37:39;27.80;87.40
2300;DHT22;1158;48.750;9.078;2023-05-20T12:40:07;26.20;90.10
2300;DHT22;1158;48.750;9.078;2023-05-20T12:42:34;26.40;90.30
2300;DHT22;1158;48.750;9.078;2023-05-20T12:45:01;27.70;87.80
2300;DHT22;1158;48.750;9.078;2023-05-20T12:47:30;28.60;85.30
2300;DHT22;1158;48.750;9.078;2023-05-20T12:49:57;28.20;85.70
2300;DHT22;1158;48.750;9.078;2023-05-20T12:52:24;27.10;85.80
2300;DHT22;1158;48.750;9.078;2023-05-20T12:54:52;26.80;88.60
2300;DHT22;1158;48.750;9.078;2023-05-20T12:57:20;26.60;88.40
2300;DHT22;1158;48.750;9.078;2023-05-20T12:59:46;26.80;87.80
2300;DHT22;1158;48.750;9.078;2023-05-20T13:02:13;26.70;89.40
2300;DHT22;1158;48.750;9.078;2023-05-20T13:04:41;26.40;88.30
2300;DHT22;1158;48.750;9.078;2023-05-20T13:07:08;26.00;89.20
2300;DHT22;1158;48.750;9.078;2023-05-20T13:09:35;25.80;90.60
2300;DHT22;1158;48.750;9.078;2023-05-20T13:12:01;25.70;89.60
2300;DHT22;1158;48.750;9.078;2023-05-20T13:14:28;27.30;88.50
2300;DHT22;1158;48.750;9.078;2023-05-20T13:16:56;28.50;85.80
2300;DHT22;1158;48.750;9.078;2023-05-20T13:19:23;29.30;85.50
2300;DHT22;1158;48.750;9.078;2023-05-20T13:21:51;28.60;84.20
2300;DHT22;1158;48.750;9.078;2023-05-20T13:24:19;29.20;83.30
2300;DHT22;1158;48.750;9.078;2023-05-20T13:26:46;30.10;82.80
2300;DHT22;1158;48.750;9.078;2023-05-20T13:29:13;29.70;81.00
2300;DHT22;1158;48.750;9.078;2023-05-20T13:31:41;29.10;82.30
2300;DHT22;1158;48.750;9.078;2023-05-20T13:34:08;28.80;82.30
2300;DHT22;1158;48.750;9.078;2023-05-20T13:36:35;27.90;83.00
2300;DHT22;1158;48.750;9.078;2023-05-20T13:39:03;27.70;84.50
2300;DHT22;1158;48.750;9.078;2023-05-20T13:41:30;26.50;86.10
2300;DHT22;1158;48.750;9.078;2023-05-20T13:43:56;25.90;87.60
2300;DHT22;1158;48.750;9.078;2023-05-20T13:46:23;25.70;89.10
2300;DHT22;1158;48.750;9.078;2023-05-20T13:48:50;26.00;89.20
2300;DHT22;1158;48.750;9.078;2023-05-20T13:51:17;26.60;87.40
2300;DHT22;1158;48.750;9.078;2023-05-20T13:53:43;26.70;86.80
2300;DHT22;1158;48.750;9.078;2023-05-20T13:56:11;26.70;86.20
2300;DHT22;1158;48.750;9.078;2023-05-20T13:58:38;26.10;86.00
2300;DHT22;1158;48.750;9.078;2023-05-20T14:01:06;25.90;87.00
2300;DHT22;1158;48.750;9.078;2023-05-20T14:03:32;25.20;85.60
2300;DHT22;1158;48.750;9.078;2023-05-20T14:06:01;24.50;88.00
2300;DHT22;1158;48.750;9.078;2023-05-20T14:08:28;24.40;89.50
2300;DHT22;1158;48.750;9.078;2023-05-20T14:10:55;24.40;88.50
2300;DHT22;1158;48.750;9.078;2023-05-20T14:13:23;24.70;87.20
2300;DHT22;1158;48.750;9.078;2023-05-20T14:15:51;24.60;88.40
2300;DHT22;1158;48.750;9.078;2023-05-20T14:18:19;24.40;87.80
2300;DHT22;1158;48.750;9.078;2023-05-20T14:20:46;24.40;89.40
2300;DHT22;1158;48.750;9.078;2023-05-20T14:23:12;24.60;89.30
2300;DHT22;1158;48.750;9.078;2023-05-20T14:25:39;24.70;88.90
2300;DHT22;1158;48.750;9.078;2023-05-20T14:28:06;25.00;87.90
2300;DHT22;1158;48.750;9.078;2023-05-20T14:30:34;25.40;87.90
2300;DHT22;1158;48.750;9.078;2023-05-20T14:33:01;25.90;86.80
2300;DHT22;1158;48.750;9.078;2023-05-20T14:35:27;25.70;86.30
2300;DHT22;1158;48.750;9.078;2023-05-20T14:37:54;25.80;87.50
2300;DHT22;1158;48.750;9.078;2023-05-20T14:40:21;25.90;86.60
2300;DHT22;1158;48.750;9.078;2023-05-20T14:42:47;25.40;86.80
2300;DHT22;1158;48.750;9.078;2023-05-20T14:45:14;25.70;87.60
2300;DHT22;1158;48.750;9.078;2023-05-20T14:47:42;25.90;86.80
2300;DHT22;1158;48.750;9.078;2023-05-20T14:50:10;25.80;86.90
2300;DHT22;1158;48.750;9.078;2023-05-20T14:52:36;25.70;86.90
2300;DHT22;1158;48.750;9.078;2023-05-20T14:55:04;25.20;87.20
2300;DHT22;1158;48.750;9.078;2023-05-20T14:57:31;24.50;90.10
2300;DHT22;1158;48.750;9.078;2023-05-20T14:59:57;24.10;89.70
2300;DHT22;1158;48.750;9.078;2023-05-20T15:02:24;23.80;90.80
2300;DHT22;1158;48.750;9.078;2023-05-20T15:04:52;23.80;90.20
2300;DHT22;1158;48.750;9.078;2023-05-20T15:07:19;24.10;89.80
2300;DHT22;1158;48.750;9.078;2023-05-20T15:09:46;24.20;89.30
2300;DHT22;1158;48.750;9.078;2023-05-20T15:12:14;24.00;89.60
2300;DHT22;1158;48.750;9.078;2023-05-20T15:14:41;23.90;90.00
2300;DHT22;1158;48.750;9.078;2023-05-20T15:17:07;24.00;88.90
2300;DHT22;1158;48.750;9.078;2023-05-20T15:19:34;23.90;89.90
2300;DHT22;1158;48.750;9.078;2023-05-20T15:22:03;23.80;90.40
2300;DHT22;1158;48.750;9.078;2023-05-20T15:24:29;23.50;88.80
2300;DHT22;1158;48.750;9.078;2023-05-20T15:26:56;23.60;90.10
2300;DHT22;1158;48.750;9.078;2023-05-20T15:29:22;23.90;90.10
2300;DHT22;1158;48.750;9.078;2023-05-20T15:31:49;24.00;89.40
2300;DHT22;1158;48.750;9.078;2023-05-20T15:34:17;24.50;89.00
2300;DHT22;1158;48.750;9.078;2023-05-20T15:36:43;25.20;88.10
2300;DHT22;1158;48.750;9.078;2023-05-20T15:39:12;25.60;87.60
2300;DHT22;1158;48.750;9.078;2023-05-20T15:41:39;25.20;87.20
2300;DHT22;1158;48.750;9.078;2023-05-20T15:44:06;25.00;88.20
2300;DHT22;1158;48.750;9.078;2023-05-20T15:46:33;25.10;88.10
2300;DHT22;1158;48.750;9.078;2023-05-20T15:49:00;25.00;88.10
2300;DHT22;1158;48.750;9.078;2023-05-20T15:51:27;25.10;88.80
2300;DHT22;1158;48.750;9.078;2023-05-20T15:53:53;25.20;88.50
2300;DHT22;1158;48.750;9.078;2023-05-20T15:56:22;24.60;89.10
2300;DHT22;1158;48.750;9.078;2023-05-20T15:58:49;24.40;90.00
2300;DHT22;1158;48.750;9.078;2023-05-20T16:01:15;24.20;89.60
2300;DHT22;1158;48.750;9.078;2023-05-20T16:03:42;24.20;90.20
2300;DHT22;1158;48.750;9.078;2023-05-20T16:06:09;24.00;90.30
2300;DHT22;1158;48.750;9.078;2023-05-20T16:08:37;24.80;89.60